Aeroporto :
LOGIN :

Iscrizione | Disclaimer

   EN    FR    IT 

 










Sommario :    VFR   VFR Marginale   IFR   IFR Intensivo   IFR Molto Intensivo
Visibilità : 
Base nubi : 
>= 8 km
>= 3000ft
5 / 8 km
1000 / 3000 ft
1500m / 5 km
500 / 1000 ft
800 / 1500m
200 / 500 ft
< 800m
< 200 ft
Simboli :   Temporali  Nebbia  Neve Forte  Precipitazioni Forti  Vento > 20 kt
SIGMETs :   Varie  Temporali  Ghiacco  Turbolenza  Onda orograficha  Ceneri Vulcaniche






- Altitudine del aeroporto : 7 ft
- Codice IATA : XHE


LFTH - Hyeres

ULTIMO METAR :
  • 231930Z AUTO 00000KT CAVOK 21/16 Q1011 NOSIG

METARs OBSOLETI :
  • 231900Z AUTO 28004KT 240V020 CAVOK 21/17 Q1010 TEMPO 23015KT
  • 231830Z AUTO 22004KT 190V260 CAVOK 22/17 Q1010 TEMPO 23015KT
  • 231800Z AUTO 24005KT CAVOK 22/17 Q1010 BECMG 23015KT
  • 231730Z AUTO 27007KT 220V310 CAVOK 23/16 Q1010 NOSIG
  • 231700Z AUTO 26010KT CAVOK 23/16 Q1010 NOSIG

TAF TAF LFTH
Valido dal 23 a 15 ore il 24 a 15 ore UTC


231400Z 2315/2415 23015KT CAVOK
BECMG 2320/2322 28005KT
BECMG 2323/2401 35005KT
BECMG 2407/2409 VRB03KT
BECMG 2410/2412 22010KT 9999 SCT030
BECMG 2413/2415 24015KT SCT030TCU



MetMap, La meteo Aeronautica in un colpo d'occhio ! - Copyright ORBIFLY Dicembre 2007 - Disclaimer

ORBIFLY MET'MAP TEAM :

Programmazione e sviluppo : Alexandra Zaïnal
Concezione : Baudouin d'Aumeries
Aiuto per la programmazione : Marc-Olivier Méhu
Supporto tecnico e logistico : Manuel Goepfert
Aiuto per la traduzione : Arnaldo La Scala

Contatto : metmap@orbifly.com




FONTI E CREDITI :

   NOAA